Edmonton International Airport
CYEG : now visible

Airfield :











YOU CAN JOIN US ON...

 
LOGIN :

Register | Disclaimer

   EN    FR    IT 

 









Legend :    VFR   Marginal VFR   IFR   Intensive IFR   Very Intensive IFR
Visi :
Ceiling :
>= 8 km
>= 3000ft
5 to 8 km
1000 to 3000 ft
1500m to 5 km
500 to 1000 ft
800 to 1500m
200 to 500 ft
< 800m
< 200 ft
Symbols :   Thunderstorms  Fog  Heavy snow  Heavy precipitations  Wind > 20 kt







- Airport Elevation : 2373 ft
- IATA code : YEG


CYEG - Edmonton International

CURRENT METAR :
  • 251000Z 30006KT 20SM BKN010 BKN020 OVC040 11/11 A2979 RMK ST5SC2SC1 SLP095 DENSITY ALT 2700FT

EXPIRED METARs :
  • 250944Z 30007KT 20SM SCT008 BKN020 OVC040 11/11 A2978 RMK ST3SC4SC1 SLP095 DENSITY ALT 2700FT
  • 250900Z 30006KT 15SM -SHRA BKN013 OVC065 11/11 A2978 RMK SC6SC2 BR TCU EMBD SLP095 DENSITY ALT 2700FT
  • 250831Z CCA 30008KT 15SM -SHRA BKN028 OVC048 11/11 A2978 RMK SC6SC2 BR TCU EMBD SLP096 DENSITY ALT 2700FT
  • 250800Z 29006KT 20SM SCT016 OVC075 11/11 A2978 RMK SC4AC4 SLP095 DENSITY ALT 2700FT

TAF TAF CYEG
Valid from the 25 at 09:00 until the 26 at 06:00 UTC


250838Z 2509/2606 29006KT P6SM SCT012 BKN025
TEMPO 2509/2515 4SM -SHRA BR BKN008 OVC015
FM251500 33008KT P6SM SCT012 OVC025
TEMPO 2515/2518 P6SM -SHRA BKN012
FM251800 34008KT P6SM BKN030
TEMPO 2520/2602 P6SM -SHRA VCTS BKN030CB
FM260200 26008KT P6SM SCT030 BKN060 RMK NXT FCST BY 251200Z
CZEG FIR / North America



MET'MAP, your aeronautical weather chart ! - Copyright ORBIFLY December 2007 - Disclaimer

ORBIFLY MET'MAP TEAM :

Programming & Development : Alexandra Zaïnal
Concept & Development : Baudouin d'Aumeries
Co-Development & Prog : Marc-Olivier Méhu
Technical & hardware support : Manuel Goepfert

Contact : metmap@orbifly.com




SOURCES & CREDITS :

   NOAA       Earth
Advisory